createdAt,value
2022-10-11T00:01:32.821Z,32.32
2022-10-11T00:04:36.082Z,32.00
2022-10-11T00:07:40.719Z,32.33
2022-10-11T00:10:43.960Z,32.25
2022-10-11T00:13:47.248Z,32.71
2022-10-11T00:16:50.356Z,32.88
2022-10-11T00:19:53.459Z,32.99
2022-10-11T00:22:57.928Z,31.59
2022-10-11T00:26:03.133Z,31.40
2022-10-11T00:29:06.632Z,30.93
2022-10-11T00:32:09.749Z,25.95
2022-10-11T00:35:12.971Z,25.67
2022-10-11T00:38:18.027Z,25.51
2022-10-11T00:41:21.333Z,25.80
2022-10-11T00:44:27.012Z,25.47
2022-10-11T00:47:30.375Z,24.28
2022-10-11T00:50:36.164Z,23.95
2022-10-11T00:53:41.663Z,23.09
2022-10-11T00:56:50.603Z,23.70
2022-10-11T00:59:56.471Z,23.55
2022-10-11T01:03:00.703Z,22.69
2022-10-11T01:06:04.595Z,24.25
2022-10-11T01:09:10.849Z,23.88
2022-10-11T01:12:17.891Z,22.56
2022-10-11T01:15:27.062Z,22.31
2022-10-11T01:18:36.507Z,21.52
2022-10-11T01:21:49.058Z,21.68
2022-10-11T01:25:15.845Z,20.54
2022-10-11T01:28:34.397Z,20.50
2022-10-11T01:31:46.027Z,20.65
2022-10-11T01:34:56.899Z,21.77
2022-10-11T01:38:03.771Z,22.96
2022-10-11T01:41:12.146Z,23.33
2022-10-11T01:44:15.733Z,24.46
2022-10-11T01:47:22.586Z,24.63
2022-10-11T01:50:38.467Z,24.71
2022-10-11T01:53:56.759Z,24.49
2022-10-11T01:57:19.716Z,24.21
2022-10-11T02:00:25.708Z,25.07
2022-10-11T02:03:40.611Z,24.69
2022-10-11T02:06:52.657Z,24.74
2022-10-11T02:10:02.716Z,24.47
2022-10-11T02:13:10.300Z,24.72
2022-10-11T02:16:18.983Z,25.41
2022-10-11T02:19:33.828Z,25.85
2022-10-11T02:22:39.874Z,25.72
2022-10-11T02:25:45.262Z,25.67
2022-10-11T02:28:50.905Z,25.85
2022-10-11T02:31:56.684Z,25.83
2022-10-11T02:35:03.137Z,26.15
2022-10-11T02:38:15.171Z,26.64
2022-10-11T02:41:26.504Z,26.99
2022-10-11T02:44:33.981Z,26.78
2022-10-11T02:47:37.724Z,26.56
2022-10-11T02:50:44.371Z,27.40
2022-10-11T02:53:47.499Z,27.50
2022-10-11T02:56:50.799Z,27.72
2022-10-11T02:59:53.937Z,27.75
2022-10-11T03:02:57.225Z,27.71
2022-10-11T03:06:03.197Z,27.58
2022-10-11T03:09:07.725Z,26.64
2022-10-11T03:12:10.878Z,26.99
2022-10-11T03:15:16.191Z,26.04
2022-10-11T03:18:19.450Z,25.92
2022-10-11T03:21:25.100Z,25.20
2022-10-11T03:24:28.400Z,24.34
2022-10-11T03:27:31.590Z,24.44
2022-10-11T03:34:34.025Z,22.64
2022-10-11T03:37:37.191Z,22.94
2022-10-11T03:40:40.887Z,23.95
2022-10-11T03:43:43.998Z,24.19
2022-10-11T03:46:47.144Z,24.50
2022-10-11T03:49:51.728Z,24.14
2022-10-11T03:52:54.824Z,25.95
2022-10-11T03:55:58.151Z,25.60
2022-10-11T03:59:02.314Z,25.42
2022-10-11T04:02:05.520Z,25.32
2022-10-11T04:05:27.600Z,25.52
2022-10-11T04:08:30.790Z,26.13
2022-10-11T04:11:33.977Z,26.51
2022-10-11T04:14:37.354Z,26.85
2022-10-11T04:17:41.166Z,26.79
2022-10-11T04:20:45.675Z,26.94
2022-10-11T04:23:49.013Z,27.19
2022-10-11T04:26:52.158Z,27.42
2022-10-11T04:29:55.387Z,27.65
2022-10-11T04:32:58.520Z,27.09
2022-10-11T04:36:03.406Z,27.23
2022-10-11T04:39:07.742Z,27.47
2022-10-11T04:42:10.873Z,27.59
2022-10-11T04:45:14.027Z,27.92
2022-10-11T04:48:17.169Z,27.94
2022-10-11T04:51:22.353Z,27.83
2022-10-11T04:54:25.863Z,27.81
2022-10-11T04:57:29.032Z,27.53
2022-10-11T05:00:32.165Z,27.33
2022-10-11T05:03:35.392Z,27.24
2022-10-11T05:06:40.183Z,27.84
2022-10-11T05:09:43.251Z,27.71
2022-10-11T05:12:46.364Z,27.83
2022-10-11T05:15:49.815Z,27.66
2022-10-11T05:18:52.921Z,28.20
2022-10-11T05:21:57.464Z,28.38
2022-10-11T05:25:00.566Z,28.13
2022-10-11T05:28:03.718Z,28.59
2022-10-11T05:31:07.094Z,29.31
2022-10-11T05:34:10.337Z,29.52
2022-10-11T05:37:14.965Z,30.09
2022-10-11T05:40:18.129Z,31.94
2022-10-11T05:43:21.548Z,33.92
2022-10-11T05:46:24.650Z,34.93
2022-10-11T05:49:27.939Z,37.70
2022-10-11T05:52:35.612Z,38.31
2022-10-11T05:55:39.787Z,38.61
2022-10-11T05:58:43.117Z,39.04
2022-10-11T06:01:46.351Z,39.29
2022-10-11T06:04:49.487Z,39.66
2022-10-11T06:07:54.336Z,39.85
2022-10-11T06:10:58.292Z,40.52
2022-10-11T06:14:01.467Z,40.83
2022-10-11T06:17:04.618Z,41.15
2022-10-11T06:20:08.886Z,41.54
2022-10-11T06:23:13.512Z,41.95
2022-10-11T06:26:16.746Z,41.83
2022-10-11T06:29:20.012Z,42.42
2022-10-11T06:32:23.268Z,43.26
2022-10-11T06:35:26.672Z,43.61
2022-10-11T06:38:31.242Z,43.65
2022-10-11T06:41:34.435Z,43.95
2022-10-11T06:44:38.068Z,44.03
2022-10-11T06:47:41.181Z,44.16
2022-10-11T06:51:00.649Z,44.63
2022-10-11T06:54:05.730Z,44.81
2022-10-11T06:57:08.851Z,45.15
2022-10-11T07:00:13.408Z,46.08
2022-10-11T07:03:21.011Z,46.48
2022-10-11T07:06:26.864Z,46.91
2022-10-11T07:09:32.861Z,47.65
2022-10-11T07:12:36.259Z,48.53
2022-10-11T07:15:41.171Z,48.77
2022-10-11T07:18:44.552Z,49.40
2022-10-11T07:21:47.747Z,49.82
2022-10-11T07:24:52.589Z,50.23
2022-10-11T07:27:55.924Z,51.28
2022-10-11T07:30:59.552Z,51.59
2022-10-11T07:34:03.067Z,51.64
2022-10-11T07:37:06.317Z,51.76
2022-10-11T07:40:11.743Z,52.15
2022-10-11T07:43:15.603Z,52.26
2022-10-11T07:46:19.652Z,52.78
2022-10-11T07:49:22.871Z,53.71
2022-10-11T07:52:26.349Z,51.95
2022-10-11T07:55:31.713Z,49.76
2022-10-11T07:58:35.167Z,49.07
2022-10-11T08:01:38.646Z,45.03
2022-10-11T08:04:42.091Z,40.45
2022-10-11T08:07:45.314Z,34.65
2022-10-11T08:10:49.921Z,33.90
2022-10-11T08:13:53.623Z,25.18
2022-10-11T08:16:56.919Z,26.74
2022-10-11T08:20:00.127Z,38.81
2022-10-11T08:23:03.354Z,41.84
2022-10-11T08:26:08.927Z,54.14
2022-10-11T08:29:12.477Z,55.17
2022-10-11T08:32:15.899Z,63.46
2022-10-11T08:35:19.153Z,66.09
2022-10-11T08:38:22.663Z,76.10
2022-10-11T08:41:32.653Z,81.45
2022-10-11T08:45:09.662Z,94.78
2022-10-11T08:48:14.443Z,100.00
2022-10-11T08:51:24.266Z,100.00
2022-10-11T08:54:36.674Z,100.00
2022-10-11T08:57:42.829Z,100.00
2022-10-11T09:00:49.406Z,100.00
2022-10-11T09:03:53.533Z,100.00
2022-10-11T09:07:05.196Z,100.00
2022-10-11T09:10:26.485Z,100.00
2022-10-11T09:14:02.954Z,100.00
2022-10-11T09:17:18.684Z,100.00
2022-10-11T09:20:34.268Z,100.00
2022-10-11T09:24:01.897Z,100.00
2022-10-11T09:27:15.513Z,100.00
2022-10-11T09:30:21.520Z,100.00
2022-10-11T09:34:35.318Z,100.00
2022-10-11T09:37:45.125Z,100.00
2022-10-11T09:41:00.038Z,100.00
2022-10-11T09:44:03.156Z,100.00
2022-10-11T09:47:07.417Z,100.00
2022-10-11T09:50:16.996Z,100.00
2022-10-11T09:53:21.835Z,100.00
2022-10-11T09:56:27.091Z,100.00
2022-10-11T09:59:34.427Z,100.00
2022-10-11T10:02:43.227Z,100.00
2022-10-11T10:06:09.260Z,100.00
2022-10-11T10:09:30.391Z,100.00
2022-10-11T10:12:33.690Z,100.00
2022-10-11T10:15:38.544Z,100.00
2022-10-11T10:18:50.284Z,100.00
2022-10-11T10:21:57.063Z,100.00
2022-10-11T10:25:02.854Z,100.00
2022-10-11T10:28:18.983Z,100.00
2022-10-11T10:31:24.016Z,100.00
2022-10-11T10:34:31.116Z,100.00
2022-10-11T10:37:39.905Z,100.00
2022-10-11T10:40:46.481Z,100.00
2022-10-11T10:43:53.809Z,100.00
2022-10-11T10:47:07.423Z,100.00
2022-10-11T10:50:18.920Z,100.00
2022-10-11T10:53:28.604Z,100.00
2022-10-11T10:56:39.580Z,100.00
2022-10-11T11:00:02.856Z,100.00
2022-10-11T11:03:12.228Z,100.00
2022-10-11T11:06:27.446Z,100.00
2022-10-11T11:09:50.704Z,100.00
2022-10-11T11:13:05.136Z,100.00
2022-10-11T11:16:15.523Z,100.00
2022-10-11T11:19:31.174Z,100.00
2022-10-11T11:22:44.543Z,100.00
2022-10-11T11:25:57.581Z,100.00
2022-10-11T11:29:12.482Z,100.00
2022-10-11T11:32:23.927Z,100.00
2022-10-11T11:35:32.073Z,100.00
2022-10-11T11:38:43.853Z,100.00
2022-10-11T11:41:54.780Z,100.00
2022-10-11T11:45:03.213Z,100.00
2022-10-11T11:48:11.961Z,100.00
2022-10-11T11:51:19.096Z,100.00
2022-10-11T11:54:31.416Z,100.00
2022-10-11T11:57:50.079Z,100.00
2022-10-11T12:01:02.926Z,100.00
2022-10-11T12:04:13.605Z,100.00
2022-10-11T12:07:19.261Z,100.00
2022-10-11T12:10:33.145Z,100.00
2022-10-11T12:13:39.183Z,100.00
2022-10-11T12:17:17.641Z,100.00
2022-10-11T12:20:25.329Z,100.00
2022-10-11T12:23:49.318Z,100.00
2022-10-11T12:26:56.489Z,100.00
2022-10-11T12:30:01.121Z,100.00
2022-10-11T12:33:07.881Z,100.00
2022-10-11T12:36:33.077Z,100.00
2022-10-11T12:39:51.308Z,100.00
2022-10-11T12:43:10.958Z,100.00
2022-10-11T12:47:00.245Z,100.00
2022-10-11T12:50:19.762Z,100.00
2022-10-11T12:53:39.373Z,100.00
2022-10-11T12:56:49.519Z,100.00
2022-10-11T12:59:52.840Z,100.00
2022-10-11T13:02:58.675Z,100.00
2022-10-11T13:06:12.390Z,100.00
2022-10-11T13:09:24.076Z,100.00
2022-10-11T13:12:29.996Z,100.00
2022-10-11T13:15:33.982Z,100.00
2022-10-11T13:18:43.416Z,100.00
2022-10-11T13:21:51.923Z,100.00
2022-10-11T13:24:57.616Z,100.00
2022-10-11T13:28:00.833Z,100.00
2022-10-11T13:31:05.704Z,100.00
2022-10-11T13:34:13.639Z,100.00
2022-10-11T13:37:18.995Z,100.00
2022-10-11T13:40:23.154Z,100.00
2022-10-11T13:43:29.088Z,100.00
2022-10-11T13:46:34.322Z,100.00
2022-10-11T13:49:40.128Z,100.00
2022-10-11T13:52:56.503Z,100.00
2022-10-11T13:56:01.819Z,100.00
2022-10-11T13:59:05.643Z,100.00
2022-10-11T14:02:19.441Z,100.00
2022-10-11T14:05:31.384Z,100.00
2022-10-11T14:08:39.048Z,100.00
2022-10-11T14:11:42.209Z,100.00
2022-10-11T14:14:48.650Z,100.00
2022-10-11T14:17:52.248Z,100.00
2022-10-11T14:20:57.011Z,100.00
2022-10-11T14:24:02.523Z,100.00
2022-10-11T14:27:07.273Z,100.00
2022-10-11T14:30:31.991Z,100.00
2022-10-11T14:33:35.918Z,100.00
2022-10-11T14:36:40.426Z,100.00
2022-10-11T14:39:44.250Z,100.00
2022-10-11T14:42:47.422Z,100.00
2022-10-11T14:45:50.645Z,100.00
2022-10-11T14:48:56.355Z,100.00
2022-10-11T14:52:01.520Z,100.00
2022-10-11T14:55:05.286Z,100.00
2022-10-11T14:58:10.388Z,100.00
2022-10-11T15:01:15.610Z,100.00
2022-10-11T15:04:18.933Z,100.00
2022-10-11T15:07:23.423Z,100.00
2022-10-11T15:10:28.847Z,100.00
2022-10-11T15:13:31.942Z,100.00
2022-10-11T15:16:35.992Z,100.00
2022-10-11T15:19:39.197Z,100.00
2022-10-11T15:22:43.809Z,100.00
2022-10-11T15:25:46.938Z,100.00
2022-10-11T15:28:50.903Z,100.00
2022-10-11T15:34:33.715Z,100.00
2022-10-11T15:37:37.556Z,100.00
2022-10-11T15:40:41.684Z,100.00
2022-10-11T15:43:46.005Z,100.00
2022-10-11T15:46:49.193Z,100.00
2022-10-11T15:49:53.692Z,100.00
2022-10-11T15:53:00.829Z,100.00
2022-10-11T15:56:08.368Z,100.00
2022-10-11T15:59:12.784Z,100.00
2022-10-11T16:02:16.311Z,100.00
2022-10-11T16:05:21.730Z,100.00
2022-10-11T16:08:25.111Z,100.00
2022-10-11T16:11:28.609Z,100.00
2022-10-11T16:14:31.725Z,100.00
2022-10-11T16:17:35.176Z,100.00
2022-10-11T16:20:40.263Z,100.00
2022-10-11T16:23:44.034Z,100.00
2022-10-11T16:26:47.132Z,100.00
2022-10-11T16:29:50.359Z,100.00
2022-10-11T16:32:53.748Z,100.00
2022-10-11T16:36:18.299Z,100.00
2022-10-11T16:39:42.901Z,100.00
2022-10-11T16:42:46.990Z,100.00
2022-10-11T16:45:57.516Z,100.00
2022-10-11T16:49:00.935Z,100.00
2022-10-11T16:52:05.634Z,100.00
2022-10-11T16:55:09.594Z,100.00
2022-10-11T16:58:12.684Z,100.00
2022-10-11T17:01:15.822Z,100.00
2022-10-11T17:04:19.150Z,100.00
2022-10-11T17:07:24.147Z,100.00
2022-10-11T17:10:39.268Z,100.00
2022-10-11T17:13:43.237Z,100.00
2022-10-11T17:16:46.714Z,100.00
2022-10-11T17:19:50.105Z,100.00
2022-10-11T17:22:55.151Z,100.00
2022-10-11T17:25:58.688Z,100.00
2022-10-11T17:29:02.248Z,100.00
2022-10-11T17:32:05.821Z,100.00
2022-10-11T17:35:09.338Z,100.00
2022-10-11T17:38:13.824Z,100.00
2022-10-11T17:41:17.156Z,100.00
2022-10-11T17:44:21.667Z,100.00
2022-10-11T17:47:24.886Z,100.00
2022-10-11T17:50:28.036Z,100.00
2022-10-11T17:53:32.581Z,100.00
2022-10-11T17:56:38.216Z,100.00
2022-10-11T17:59:41.792Z,100.00
2022-10-11T18:02:44.922Z,100.00
2022-10-11T18:05:48.625Z,100.00
2022-10-11T18:08:53.194Z,100.00
2022-10-11T18:11:56.272Z,100.00
2022-10-11T18:14:59.414Z,100.00
2022-10-11T18:18:04.822Z,100.00
2022-10-11T18:21:08.152Z,100.00
2022-10-11T18:24:15.966Z,100.00
2022-10-11T18:27:19.164Z,100.00
2022-10-11T18:30:22.295Z,100.00
2022-10-11T18:33:25.575Z,100.00
2022-10-11T18:36:31.550Z,100.00
2022-10-11T18:39:36.273Z,100.00
2022-10-11T18:42:39.612Z,100.00
2022-10-11T18:45:42.736Z,100.00
2022-10-11T18:48:47.576Z,100.00
2022-10-11T18:51:50.747Z,100.00
2022-10-11T18:54:55.482Z,100.00
2022-10-11T18:57:59.007Z,100.00
2022-10-11T19:01:05.639Z,100.00
2022-10-11T19:04:10.164Z,100.00
2022-10-11T19:07:13.417Z,100.00
2022-10-11T19:10:17.967Z,100.00
2022-10-11T19:13:21.077Z,100.00
2022-10-11T19:16:24.603Z,100.00
2022-10-11T19:19:29.378Z,100.00
2022-10-11T19:22:32.720Z,100.00
2022-10-11T19:25:37.721Z,100.00
2022-10-11T19:28:41.147Z,100.00
2022-10-11T19:31:46.067Z,100.00
2022-10-11T19:34:49.447Z,100.00
2022-10-11T19:37:54.897Z,100.00
2022-10-11T19:41:01.039Z,100.00
2022-10-11T19:44:04.651Z,100.00
2022-10-11T19:47:07.919Z,100.00
2022-10-11T19:50:11.232Z,100.00
2022-10-11T19:53:14.531Z,100.00
2022-10-11T19:56:20.132Z,100.00
2022-10-11T19:59:23.334Z,100.00
2022-10-11T20:02:26.518Z,100.00
2022-10-11T20:05:29.640Z,100.00
2022-10-11T20:08:33.714Z,100.00
2022-10-11T20:11:38.751Z,100.00
2022-10-11T20:14:41.812Z,100.00
2022-10-11T20:17:51.635Z,100.00
2022-10-11T20:20:56.325Z,100.00
2022-10-11T20:24:00.995Z,100.00
2022-10-11T20:27:07.787Z,100.00
2022-10-11T20:30:13.927Z,100.00
2022-10-11T20:33:17.261Z,100.00
2022-10-11T20:36:22.229Z,100.00
2022-10-11T20:39:25.569Z,100.00
2022-10-11T20:42:30.290Z,100.00
2022-10-11T20:45:33.520Z,100.00
2022-10-11T20:48:38.296Z,100.00
2022-10-11T20:51:42.819Z,100.00
2022-10-11T20:54:45.950Z,100.00
2022-10-11T20:57:50.602Z,100.00
2022-10-11T21:00:53.804Z,100.00
2022-10-11T21:03:58.752Z,100.00
2022-10-11T21:07:02.004Z,100.00
2022-10-11T21:10:05.694Z,100.00
2022-10-11T21:13:10.350Z,100.00
2022-10-11T21:16:15.774Z,100.00
2022-10-11T21:19:19.049Z,100.00
2022-10-11T21:22:22.420Z,100.00
2022-10-11T21:25:25.970Z,100.00
2022-10-11T21:28:30.533Z,100.00
2022-10-11T21:34:33.446Z,100.00
2022-10-11T21:37:36.992Z,100.00
2022-10-11T21:40:40.723Z,100.00
2022-10-11T21:43:43.970Z,100.00
2022-10-11T21:47:06.076Z,100.00
2022-10-11T21:50:11.784Z,100.00
2022-10-11T21:53:14.998Z,100.00
2022-10-11T21:56:18.390Z,100.00
2022-10-11T21:59:21.569Z,100.00
2022-10-11T22:02:24.647Z,100.00
2022-10-11T22:05:29.151Z,100.00
2022-10-11T22:08:32.681Z,100.00
2022-10-11T22:11:35.827Z,100.00
2022-10-11T22:14:39.084Z,100.00
2022-10-11T22:17:42.217Z,100.00
2022-10-11T22:20:47.024Z,100.00
2022-10-11T22:23:51.772Z,100.00
2022-10-11T22:26:54.855Z,100.00
2022-10-11T22:29:57.994Z,100.00
2022-10-11T22:33:01.334Z,100.00
2022-10-11T22:36:08.857Z,100.00
2022-10-11T22:39:12.127Z,100.00
2022-10-11T22:42:15.329Z,100.00
2022-10-11T22:45:18.471Z,100.00
2022-10-11T22:48:21.596Z,100.00
2022-10-11T22:51:26.182Z,100.00
2022-10-11T22:54:29.341Z,100.00
2022-10-11T22:57:32.499Z,100.00
2022-10-11T23:00:35.707Z,100.00
2022-10-11T23:03:39.083Z,100.00
2022-10-11T23:06:43.712Z,100.00
2022-10-11T23:09:46.807Z,100.00
2022-10-11T23:12:49.937Z,100.00
2022-10-11T23:15:53.208Z,100.00
2022-10-11T23:18:56.721Z,100.00
2022-10-11T23:22:01.239Z,100.00
2022-10-11T23:25:04.622Z,100.00
2022-10-11T23:28:07.988Z,100.00
2022-10-11T23:31:13.212Z,100.00
2022-10-11T23:34:16.499Z,100.00
2022-10-11T23:37:20.999Z,100.00
2022-10-11T23:40:24.464Z,100.00
2022-10-11T23:43:27.753Z,100.00
2022-10-11T23:46:30.892Z,100.00
2022-10-11T23:49:33.961Z,100.00
2022-10-11T23:52:38.722Z,100.00
2022-10-11T23:55:43.296Z,100.00
2022-10-11T23:58:46.683Z,100.00
